Time;durP1;ratioP1;P1;durP2;ratioP2;P2;SDS_P1;SDS_P2;PMS_P1;PMS_P2;Temp;Humidity;BMP_temperature;BMP_pressure;BME280_temperature;BME280_humidity;BME280_pressure;Samples;Min_cycle;Max_cycle;Signal;HPM_P1;HPM_P2
2023/05/10 00:00:20;;;;;;;6.67;5.97;;;13.40;99.90;;;;;;5075268;28;20197;-78
2023/05/10 00:02:47;;;;;;;9.00;6.20;;;13.40;99.90;;;;;;5075052;28;20541;-78
2023/05/10 00:05:13;;;;;;;7.50;6.80;;;13.40;99.90;;;;;;5075101;28;20235;-78
2023/05/10 00:07:40;;;;;;;6.90;6.20;;;13.40;99.90;;;;;;5074915;28;20197;-79
2023/05/10 00:10:07;;;;;;;6.93;6.20;;;13.40;99.90;;;;;;5074930;28;20197;-78
2023/05/10 00:12:35;;;;;;;6.53;5.93;;;13.50;99.90;;;;;;5073795;28;20648;-78
2023/05/10 00:15:02;;;;;;;6.43;5.83;;;13.50;99.90;;;;;;5075104;28;20254;-79
2023/05/10 00:17:29;;;;;;;7.10;6.40;;;13.40;99.90;;;;;;5074878;28;20284;-78
2023/05/10 00:19:56;;;;;;;6.77;5.63;;;13.30;99.90;;;;;;5074752;28;20224;-78
2023/05/10 00:22:22;;;;;;;9.90;7.60;;;13.30;99.90;;;;;;5074622;28;20197;-78
2023/05/10 00:24:49;;;;;;;8.73;7.83;;;13.30;99.90;;;;;;5074857;28;20205;-78
2023/05/10 00:27:16;;;;;;;6.90;5.97;;;13.40;99.90;;;;;;5074733;28;20223;-77
2023/05/10 00:29:44;;;;;;;8.33;7.53;;;13.30;99.90;;;;;;5074688;28;20238;-77
2023/05/10 00:32:10;;;;;;;7.20;6.27;;;13.40;99.90;;;;;;5074719;28;20201;-77
2023/05/10 00:34:37;;;;;;;8.03;6.60;;;13.30;99.90;;;;;;5074512;28;20197;-76
2023/05/10 00:37:03;;;;;;;8.93;6.90;;;13.20;99.90;;;;;;5074336;28;20576;-76
2023/05/10 00:39:30;;;;;;;8.03;6.77;;;13.20;99.90;;;;;;5074554;28;20282;-76
2023/05/10 00:41:56;;;;;;;7.47;6.77;;;13.20;99.90;;;;;;5074708;28;20603;-76
2023/05/10 00:44:23;;;;;;;11.57;10.53;;;13.20;99.90;;;;;;5074433;28;20342;-77
2023/05/10 00:46:51;;;;;;;7.23;6.53;;;13.20;99.90;;;;;;5074322;28;20194;-77
2023/05/10 00:49:18;;;;;;;6.50;5.90;;;13.20;99.90;;;;;;5074156;28;20656;-76
2023/05/10 00:51:45;;;;;;;6.47;5.87;;;13.20;99.90;;;;;;5073930;28;20205;-76
2023/05/10 00:54:13;;;;;;;7.07;5.57;;;13.10;99.90;;;;;;5074321;28;20196;-76
2023/05/10 00:56:40;;;;;;;6.63;5.93;;;13.20;99.90;;;;;;5074131;28;20200;-76
2023/05/10 00:59:07;;;;;;;6.20;5.60;;;13.10;99.90;;;;;;5073934;28;20225;-76
2023/05/10 01:01:34;;;;;;;7.80;5.67;;;13.10;99.90;;;;;;5073919;28;20229;-77
2023/05/10 01:04:02;;;;;;;6.10;5.50;;;13.10;99.90;;;;;;5073785;28;20205;-75
2023/05/10 01:06:29;;;;;;;6.17;4.93;;;13.10;99.90;;;;;;5073921;28;20204;-75
2023/05/10 01:08:56;;;;;;;5.43;4.77;;;13.10;99.90;;;;;;5073716;28;20201;-75
2023/05/10 01:11:23;;;;;;;5.20;4.37;;;13.10;99.90;;;;;;5073660;28;20242;-76
2023/05/10 01:13:56;;;;;;;5.20;4.70;;;13.10;99.90;;;;;;5073524;28;20219;-76
2023/05/10 01:16:23;;;;;;;5.00;4.50;;;13.10;99.90;;;;;;5073597;28;20196;-76
2023/05/10 01:18:50;;;;;;;4.83;4.00;;;13.10;99.90;;;;;;5073446;28;20626;-77
2023/05/10 01:21:31;;;;;;;5.03;4.57;;;13.10;99.90;;;;;;5073778;28;20258;-76
2023/05/10 01:24:34;;;;;;;4.87;4.37;;;13.10;99.90;;;;;;5073427;28;20199;-77
2023/05/10 01:27:41;;;;;;;3.97;3.67;;;13.10;99.90;;;;;;5063201;28;20250;-76
2023/05/10 01:30:42;;;;;;;5.50;4.03;;;13.10;99.90;;;;;;5055577;28;20234;-75
2023/05/10 01:33:14;;;;;;;4.00;3.60;;;13.10;99.90;;;;;;5073225;28;20242;-74
2023/05/10 01:35:46;;;;;;;4.37;3.80;;;13.10;99.90;;;;;;5073469;28;20197;-75
2023/05/10 01:38:19;;;;;;;4.70;4.03;;;13.10;99.90;;;;;;5073367;28;20219;-76
2023/05/10 01:40:56;;;;;;;4.47;4.07;;;13.10;99.90;;;;;;5073039;28;20738;-76
2023/05/10 01:43:29;;;;;;;4.00;3.70;;;13.10;99.90;;;;;;5073140;28;20219;-76
2023/05/10 01:46:09;;;;;;;4.13;3.73;;;13.10;99.90;;;;;;5073000;28;20197;-77
2023/05/10 01:48:38;;;;;;;4.67;4.00;;;13.10;99.90;;;;;;5073215;28;20197;-76
2023/05/10 01:51:06;;;;;;;4.10;3.70;;;13.10;99.90;;;;;;5073100;28;20227;-76
2023/05/10 01:53:35;;;;;;;3.87;3.43;;;13.10;99.90;;;;;;5072674;28;20615;-76
2023/05/10 01:56:02;;;;;;;3.67;3.27;;;13.00;99.90;;;;;;5072927;28;20262;-72
2023/05/10 01:58:32;;;;;;;2.87;2.63;;;12.90;99.90;;;;;;5072743;28;20201;-71
2023/05/10 02:01:01;;;;;;;2.43;2.20;;;12.70;99.90;;;;;;5072960;28;20242;-73
2023/05/10 02:03:30;;;;;;;2.60;2.40;;;12.60;99.90;;;;;;5072993;28;20260;-73
2023/05/10 02:05:58;;;;;;;2.53;2.33;;;12.60;99.90;;;;;;5072884;28;20201;-73
2023/05/10 02:08:26;;;;;;;2.80;2.60;;;12.50;99.90;;;;;;5072904;28;20242;-73
2023/05/10 02:10:56;;;;;;;3.43;2.50;;;12.60;99.90;;;;;;5072756;28;20201;-73
2023/05/10 02:13:25;;;;;;;2.27;2.07;;;12.50;99.90;;;;;;5072955;28;20274;-73
2023/05/10 02:15:53;;;;;;;4.40;2.17;;;12.50;99.90;;;;;;5072849;28;20194;-74
2023/05/10 02:18:22;;;;;;;2.30;1.90;;;12.60;99.90;;;;;;5072858;28;20193;-74
2023/05/10 02:20:49;;;;;;;2.10;1.90;;;12.50;99.90;;;;;;5072500;28;20301;-74
2023/05/10 02:23:18;;;;;;;2.37;2.17;;;12.40;99.90;;;;;;5072711;28;20201;-74
2023/05/10 02:25:47;;;;;;;3.03;1.90;;;12.40;99.90;;;;;;5083225;28;20256;-73
2023/05/10 02:28:15;;;;;;;2.07;1.83;;;12.40;99.90;;;;;;5073346;28;20227;-75
2023/05/10 02:30:42;;;;;;;1.87;1.70;;;12.40;99.90;;;;;;5075635;28;20200;-74
2023/05/10 02:33:10;;;;;;;3.20;1.90;;;12.40;99.90;;;;;;5085690;28;20270;-74
2023/05/10 02:35:38;;;;;;;2.10;2.00;;;12.40;99.90;;;;;;5074790;28;20200;-74
2023/05/10 02:38:07;;;;;;;2.33;1.70;;;12.40;99.90;;;;;;5076821;28;20714;-75
2023/05/10 02:40:37;;;;;;;2.63;2.00;;;12.40;99.90;;;;;;5076660;28;20309;-74
2023/05/10 02:43:07;;;;;;;1.77;1.50;;;12.40;99.90;;;;;;5076909;28;20603;-75
2023/05/10 02:45:36;;;;;;;1.93;1.40;;;12.30;99.90;;;;;;5076636;28;20718;-75
2023/05/10 02:48:03;;;;;;;1.50;1.40;;;12.30;99.90;;;;;;5076651;28;20258;-74
2023/05/10 02:50:33;;;;;;;1.83;1.50;;;12.30;99.90;;;;;;5076242;28;20657;-74
2023/05/10 02:53:02;;;;;;;1.70;1.60;;;12.30;99.90;;;;;;5076308;28;20290;-75
2023/05/10 02:55:33;;;;;;;1.40;1.30;;;12.20;99.90;;;;;;5076156;28;20662;-75
2023/05/10 02:58:03;;;;;;;1.40;1.30;;;12.10;99.90;;;;;;5076379;28;20250;-75
2023/05/10 03:00:30;;;;;;;1.53;1.43;;;12.10;99.90;;;;;;5076085;28;20783;-75
2023/05/10 03:02:56;;;;;;;1.30;1.20;;;12.10;99.90;;;;;;5076112;28;20250;-75
2023/05/10 03:05:23;;;;;;;1.70;1.53;;;12.10;99.90;;;;;;5076085;28;20648;-76
2023/05/10 03:07:50;;;;;;;1.50;1.40;;;12.00;99.90;;;;;;5076047;28;20676;-76
2023/05/10 03:10:17;;;;;;;1.83;1.60;;;12.00;99.90;;;;;;5075934;28;20686;-75
2023/05/10 03:12:57;;;;;;;1.50;1.40;;;12.00;99.90;;;;;;5075904;28;20242;-76
2023/05/10 03:15:38;;;;;;;1.60;1.50;;;12.00;99.90;;;;;;5075932;28;20192;-76
2023/05/10 03:18:10;;;;;;;1.87;1.60;;;12.00;99.90;;;;;;5076022;28;20219;-76
2023/05/10 03:20:42;;;;;;;1.40;1.30;;;12.00;99.90;;;;;;5075891;28;20232;-76
2023/05/10 03:23:13;;;;;;;1.63;1.50;;;12.00;99.90;;;;;;5075846;28;20197;-77
2023/05/10 03:25:41;;;;;;;1.30;1.20;;;12.00;99.90;;;;;;5075900;28;20201;-76
2023/05/10 03:28:09;;;;;;;7.13;1.50;;;12.00;99.90;;;;;;5075692;28;20541;-77
2023/05/10 03:30:38;;;;;;;1.73;1.60;;;12.00;99.90;;;;;;5075898;28;20270;-77
2023/05/10 03:33:07;;;;;;;2.60;1.40;;;12.00;99.90;;;;;;5075566;28;20829;-78
2023/05/10 03:35:34;;;;;;;1.60;1.50;;;12.00;99.90;;;;;;5075633;28;20201;-77
2023/05/10 03:38:01;;;;;;;1.50;1.40;;;12.00;99.90;;;;;;5075525;28;20201;-77
2023/05/10 03:40:28;;;;;;;3.23;1.67;;;12.00;99.90;;;;;;5075319;28;20224;-78
2023/05/10 03:42:55;;;;;;;2.20;1.50;;;11.90;99.90;;;;;;5075566;28;20207;-78
2023/05/10 03:45:22;;;;;;;1.70;1.60;;;11.90;99.90;;;;;;5075520;28;20204;-79
2023/05/10 03:47:50;;;;;;;2.67;1.47;;;11.90;99.90;;;;;;5075382;28;20648;-77
2023/05/10 03:50:16;;;;;;;2.07;1.40;;;11.90;99.90;;;;;;5075321;28;20208;-77
2023/05/10 03:52:44;;;;;;;3.23;1.70;;;11.90;99.90;;;;;;5075058;28;20224;-77
2023/05/10 03:55:10;;;;;;;2.20;1.67;;;11.90;99.90;;;;;;5075154;28;20627;-76
2023/05/10 03:57:37;;;;;;;1.90;1.80;;;11.90;99.90;;;;;;5075279;28;20204;-76
2023/05/10 04:00:04;;;;;;;3.13;1.87;;;11.90;99.90;;;;;;5075072;28;20273;-78
2023/05/10 04:02:31;;;;;;;2.10;1.90;;;11.90;99.90;;;;;;5075095;28;20197;-77
2023/05/10 04:04:59;;;;;;;2.10;1.90;;;11.80;99.90;;;;;;5075123;28;20193;-78
2023/05/10 04:07:26;;;;;;;2.73;2.10;;;11.80;99.90;;;;;;5074759;28;20197;-78
2023/05/10 04:09:53;;;;;;;2.33;1.90;;;11.80;99.90;;;;;;5075133;28;20533;-78
2023/05/10 04:12:19;;;;;;;2.63;2.00;;;11.80;99.90;;;;;;5075010;28;20197;-78
2023/05/10 04:14:46;;;;;;;2.30;2.10;;;11.80;99.90;;;;;;5074840;28;20193;-78
2023/05/10 04:17:12;;;;;;;6.73;2.43;;;11.80;99.90;;;;;;5074651;28;20722;-78
2023/05/10 04:19:39;;;;;;;2.97;2.37;;;11.80;99.90;;;;;;5074594;28;20278;-78
2023/05/10 04:22:07;;;;;;;2.37;2.17;;;11.80;99.90;;;;;;5077953;28;20282;-78
2023/05/10 04:24:34;;;;;;;2.30;2.10;;;11.80;99.90;;;;;;5075089;28;20255;-79
2023/05/10 04:27:00;;;;;;;3.00;2.30;;;11.70;99.90;;;;;;5074957;28;20663;-79
2023/05/10 04:29:27;;;;;;;2.70;2.50;;;11.70;99.90;;;;;;5075259;28;20205;-79
2023/05/10 04:31:54;;;;;;;2.57;2.37;;;11.70;99.90;;;;;;5074717;28;20197;-79
2023/05/10 04:34:21;;;;;;;2.70;2.50;;;11.70;99.90;;;;;;5074622;28;20200;-80
2023/05/10 04:36:48;;;;;;;2.83;2.63;;;11.70;99.90;;;;;;5074406;28;20192;-81
2023/05/10 04:39:16;;;;;;;4.37;2.30;;;11.70;99.90;;;;;;5074623;28;20196;-80
2023/05/10 04:41:42;;;;;;;4.87;2.47;;;11.70;99.90;;;;;;5074595;28;20213;-80
2023/05/10 04:44:09;;;;;;;2.97;2.67;;;11.60;99.90;;;;;;5074591;28;20197;-80
2023/05/10 04:46:35;;;;;;;2.80;2.60;;;11.70;99.90;;;;;;5074459;28;20274;-80
2023/05/10 04:49:02;;;;;;;3.50;3.20;;;11.70;99.90;;;;;;5074285;28;20243;-80
2023/05/10 04:51:28;;;;;;;4.93;2.90;;;11.60;99.90;;;;;;5074640;28;20205;-80
2023/05/10 04:53:55;;;;;;;3.70;3.40;;;11.70;99.90;;;;;;5073849;28;20229;-79
2023/05/10 04:56:23;;;;;;;3.57;3.27;;;11.60;99.90;;;;;;5074008;28;20656;-79
2023/05/10 04:58:50;;;;;;;3.97;3.40;;;11.70;99.90;;;;;;5073729;28;20197;-80
2023/05/10 05:01:16;;;;;;;5.07;3.97;;;11.70;99.90;;;;;;5073965;28;20224;-79
2023/05/10 05:03:43;;;;;;;5.70;3.47;;;11.70;99.90;;;;;;5073890;28;20199;-79
2023/05/10 05:06:10;;;;;;;4.10;3.80;;;11.80;99.90;;;;;;5073863;28;20653;-80
2023/05/10 05:08:36;;;;;;;5.30;4.10;;;11.80;99.90;;;;;;5073949;28;20215;-79
2023/05/10 05:11:03;;;;;;;4.83;4.43;;;11.80;99.90;;;;;;5073664;28;20599;-79
2023/05/10 05:13:31;;;;;;;5.40;4.90;;;11.90;99.90;;;;;;5073807;28;20193;-79
2023/05/10 05:15:58;;;;;;;5.77;4.30;;;12.10;99.90;;;;;;5074456;28;20197;-78
2023/05/10 05:18:24;;;;;;;5.40;4.90;;;12.10;99.90;;;;;;5073932;28;20322;-79
2023/05/10 05:20:51;;;;;;;4.97;4.43;;;12.20;99.90;;;;;;5073714;28;20270;-72
2023/05/10 05:23:18;;;;;;;5.33;4.83;;;12.20;99.90;;;;;;5073569;28;20607;-72
2023/05/10 05:25:45;;;;;;;5.50;5.00;;;12.10;99.90;;;;;;5073292;28;20208;-74
2023/05/10 05:28:11;;;;;;;8.70;5.47;;;12.20;99.90;;;;;;5073092;28;20262;-75
2023/05/10 05:30:39;;;;;;;5.30;4.83;;;12.30;99.90;;;;;;5073208;28;20607;-76
2023/05/10 05:33:06;;;;;;;5.57;5.07;;;12.30;99.90;;;;;;5073186;28;20250;-79
2023/05/10 05:35:32;;;;;;;5.10;4.70;;;12.30;99.90;;;;;;5073614;28;20197;-79
2023/05/10 05:37:59;;;;;;;4.53;4.13;;;12.20;99.90;;;;;;5074240;28;20262;-79
2023/05/10 05:40:26;;;;;;;4.60;4.20;;;12.20;99.90;;;;;;5072972;28;20217;-78
2023/05/10 05:42:53;;;;;;;5.33;4.87;;;12.20;99.90;;;;;;5073499;28;20247;-75
2023/05/10 05:45:19;;;;;;;6.03;5.53;;;12.30;99.90;;;;;;5072908;28;20695;-76
2023/05/10 05:47:48;;;;;;;5.33;4.83;;;12.40;99.90;;;;;;5072897;28;20201;-76
2023/05/10 05:50:14;;;;;;;9.17;5.20;;;12.40;99.90;;;;;;5072766;28;20274;-76
2023/05/10 05:52:41;;;;;;;5.10;4.63;;;12.50;99.90;;;;;;5072790;28;20225;-76
2023/05/10 05:55:08;;;;;;;5.63;4.93;;;12.40;99.90;;;;;;5072823;28;20197;-76
2023/05/10 05:57:35;;;;;;;5.40;4.70;;;12.50;99.90;;;;;;5072824;28;20197;-75
2023/05/10 06:00:02;;;;;;;5.53;4.63;;;12.70;99.90;;;;;;5072477;28;20272;-75
2023/05/10 06:02:29;;;;;;;5.03;4.53;;;12.70;99.90;;;;;;5072963;28;20197;-75
2023/05/10 06:04:57;;;;;;;6.27;4.43;;;12.80;99.90;;;;;;5072742;28;20605;-75
2023/05/10 06:07:23;;;;;;;5.20;4.10;;;12.90;99.90;;;;;;5072545;28;20200;-74
2023/05/10 06:09:50;;;;;;;4.50;3.97;;;13.00;99.90;;;;;;5071616;28;20228;-74
2023/05/10 06:12:17;;;;;;;4.50;4.10;;;12.90;99.90;;;;;;5072711;28;20197;-74
2023/05/10 06:14:43;;;;;;;3.97;3.60;;;12.90;99.90;;;;;;5072554;28;20274;-74
2023/05/10 06:17:10;;;;;;;3.80;3.30;;;12.90;99.90;;;;;;5072618;28;20238;-73
2023/05/10 06:19:36;;;;;;;3.87;3.53;;;12.80;99.90;;;;;;5072666;28;20200;-73
2023/05/10 06:22:05;;;;;;;4.70;3.63;;;12.80;99.90;;;;;;5072659;28;20255;-74
2023/05/10 06:24:31;;;;;;;4.20;3.80;;;12.80;99.90;;;;;;5072642;28;20201;-74
2023/05/10 06:26:59;;;;;;;4.30;3.90;;;13.00;99.90;;;;;;5072399;28;20197;-73
2023/05/10 06:29:26;;;;;;;6.07;3.63;;;13.00;99.90;;;;;;5072712;28;20205;-73
2023/05/10 06:31:53;;;;;;;4.00;3.70;;;13.20;99.90;;;;;;5072442;28;20748;-73
2023/05/10 06:34:20;;;;;;;4.73;3.87;;;13.40;99.90;;;;;;5072592;28;20197;-73
2023/05/10 06:36:47;;;;;;;3.90;3.60;;;13.40;99.90;;;;;;5072552;28;20242;-73
2023/05/10 06:39:15;;;;;;;7.47;3.73;;;13.40;99.90;;;;;;5072385;28;20243;-74
2023/05/10 06:41:41;;;;;;;5.33;4.13;;;13.30;99.90;;;;;;5072195;28;20650;-73
2023/05/10 06:44:08;;;;;;;4.47;4.07;;;13.10;99.90;;;;;;5072532;28;20251;-73
2023/05/10 06:46:34;;;;;;;4.50;4.10;;;13.20;99.90;;;;;;5072427;28;20197;-73
2023/05/10 06:49:01;;;;;;;5.93;3.80;;;13.30;99.90;;;;;;5072262;28;20201;-74
2023/05/10 06:51:28;;;;;;;4.17;3.77;;;13.30;99.90;;;;;;5072211;28;20604;-73
2023/05/10 06:53:54;;;;;;;5.83;4.50;;;13.30;99.90;;;;;;5072153;28;20286;-73
2023/05/10 06:56:22;;;;;;;4.60;4.00;;;13.40;99.90;;;;;;5072183;28;20250;-75
2023/05/10 06:58:49;;;;;;;4.60;4.20;;;13.40;99.90;;;;;;5072303;28;20209;-75
2023/05/10 07:01:15;;;;;;;4.30;3.90;;;13.50;99.90;;;;;;5072263;28;20220;-74
2023/05/10 07:03:42;;;;;;;5.77;4.50;;;13.50;99.90;;;;;;5072147;28;20649;-74
2023/05/10 07:06:09;;;;;;;5.90;4.00;;;13.70;99.90;;;;;;5072295;28;20206;-74
2023/05/10 07:08:35;;;;;;;4.30;3.90;;;13.50;99.90;;;;;;5072082;28;20250;-74
2023/05/10 07:11:03;;;;;;;4.07;3.77;;;13.40;99.90;;;;;;5072070;28;20653;-74
2023/05/10 07:13:32;;;;;;;5.80;3.97;;;13.40;99.90;;;;;;5072050;28;20651;-73
2023/05/10 07:15:59;;;;;;;4.60;4.20;;;13.30;99.90;;;;;;5072070;28;20607;-74
2023/05/10 07:18:26;;;;;;;4.37;3.70;;;13.40;99.90;;;;;;5071797;28;20216;-74
2023/05/10 07:20:53;;;;;;;4.33;4.03;;;13.30;99.90;;;;;;5072640;28;20278;-74
2023/05/10 07:23:19;;;;;;;4.10;3.70;;;13.30;99.90;;;;;;5075704;28;20254;-74
2023/05/10 07:25:46;;;;;;;4.53;3.40;;;13.40;99.90;;;;;;5075836;28;20201;-74
2023/05/10 07:28:14;;;;;;;3.70;3.40;;;13.20;99.90;;;;;;5075845;28;20202;-74
2023/05/10 07:30:42;;;;;;;4.10;3.67;;;13.20;99.90;;;;;;5075587;28;20676;-75
2023/05/10 07:33:09;;;;;;;3.60;3.30;;;13.40;99.90;;;;;;5075684;28;20250;-75
2023/05/10 07:35:36;;;;;;;6.43;4.13;;;13.50;99.90;;;;;;5075641;28;20607;-76
2023/05/10 07:38:03;;;;;;;3.73;3.43;;;13.80;99.90;;;;;;5075615;28;20197;-76
2023/05/10 07:40:30;;;;;;;5.00;3.30;;;14.00;99.90;;;;;;5075629;28;20291;-76
2023/05/10 07:42:57;;;;;;;6.13;2.83;;;14.10;99.90;;;;;;5075586;28;20201;-76
2023/05/10 07:45:23;;;;;;;3.70;3.37;;;14.20;99.90;;;;;;5075638;28;20243;-76
2023/05/10 07:47:51;;;;;;;4.33;2.70;;;14.30;99.90;;;;;;5075459;28;20192;-76
2023/05/10 07:50:18;;;;;;;4.07;3.10;;;14.60;99.90;;;;;;5075431;28;20364;-75
2023/05/10 07:52:45;;;;;;;5.67;3.13;;;14.20;99.90;;;;;;5075401;28;20229;-76
2023/05/10 07:55:12;;;;;;;3.67;2.70;;;14.50;99.90;;;;;;5075494;28;20196;-75
2023/05/10 07:57:39;;;;;;;4.73;3.00;;;14.70;99.90;;;;;;5075656;28;20283;-76
2023/05/10 08:00:06;;;;;;;4.63;3.03;;;14.70;99.90;;;;;;5075309;28;20192;-75
2023/05/10 08:02:34;;;;;;;3.85;2.85;;;15.00;99.90;;;;;;5076062;28;20228;-75
2023/05/10 08:05:02;;;;;;;5.47;2.80;;;15.10;99.90;;;;;;5075310;28;20613;-76
2023/05/10 08:07:29;;;;;;;3.42;2.67;;;14.90;99.90;;;;;;5075707;28;20255;-75
2023/05/10 08:09:55;;;;;;;3.72;2.70;;;15.00;99.90;;;;;;5076210;28;20197;-76
2023/05/10 08:12:22;;;;;;;3.63;2.78;;;15.20;99.90;;;;;;5074908;28;20247;-75
2023/05/10 08:14:49;;;;;;;4.28;3.00;;;15.20;99.90;;;;;;5074927;28;20208;-74
2023/05/10 08:17:15;;;;;;;4.45;2.65;;;15.10;99.90;;;;;;5074790;28;20286;-75
2023/05/10 08:19:42;;;;;;;3.80;2.60;;;15.20;99.90;;;;;;5074408;28;20197;-75
2023/05/10 08:22:10;;;;;;;4.20;2.50;;;15.20;99.90;;;;;;5074765;28;20228;-75
2023/05/10 08:24:38;;;;;;;2.70;2.40;;;15.10;99.90;;;;;;5074379;28;20660;-74
2023/05/10 08:27:05;;;;;;;3.80;2.60;;;15.30;99.90;;;;;;5074517;28;20205;-74
2023/05/10 08:29:31;;;;;;;3.53;2.80;;;15.30;99.90;;;;;;5074465;28;20193;-75
2023/05/10 08:31:58;;;;;;;4.03;2.55;;;15.30;99.90;;;;;;5073999;28;20202;-75
2023/05/10 08:34:25;;;;;;;3.40;2.53;;;15.40;99.90;;;;;;5074018;28;20197;-73
2023/05/10 08:36:51;;;;;;;3.58;2.70;;;15.40;99.90;;;;;;5074291;28;20281;-73
2023/05/10 08:39:19;;;;;;;4.50;2.17;;;15.60;99.90;;;;;;5074065;28;20197;-73
2023/05/10 08:41:48;;;;;;;3.00;2.38;;;15.50;99.90;;;;;;5074129;28;20303;-74
2023/05/10 08:44:18;;;;;;;3.95;1.88;;;15.80;99.90;;;;;;5074227;28;20197;-74
2023/05/10 08:46:47;;;;;;;2.60;2.40;;;15.90;99.90;;;;;;5073854;28;20672;-74
2023/05/10 08:49:15;;;;;;;4.60;2.38;;;16.10;99.90;;;;;;5073771;28;20205;-74
2023/05/10 08:51:47;;;;;;;2.92;2.58;;;16.10;99.90;;;;;;5073886;28;20246;-74
2023/05/10 08:54:15;;;;;;;3.88;2.30;;;16.10;99.90;;;;;;5074109;28;20246;-74
2023/05/10 08:56:43;;;;;;;3.05;2.75;;;15.90;99.90;;;;;;5076620;28;20196;-75
2023/05/10 08:59:11;;;;;;;3.65;3.00;;;15.60;99.90;;;;;;5073933;28;20200;-74
2023/05/10 09:01:38;;;;;;;4.03;2.90;;;15.70;99.90;;;;;;5074010;28;20225;-74
2023/05/10 09:04:05;;;;;;;3.45;2.80;;;15.70;99.90;;;;;;5073845;28;20205;-74
2023/05/10 09:06:32;;;;;;;3.10;2.80;;;16.10;99.90;;;;;;5073860;28;20272;-74
2023/05/10 09:08:59;;;;;;;5.63;3.20;;;16.40;99.90;;;;;;5073567;28;20284;-75
2023/05/10 09:11:28;;;;;;;4.80;2.55;;;16.40;99.90;;;;;;5073584;28;20201;-75
2023/05/10 09:13:56;;;;;;;3.63;2.90;;;15.70;99.90;;;;;;5073616;28;20204;-74
2023/05/10 09:16:24;;;;;;;6.82;3.65;;;15.70;99.90;;;;;;5073329;28;20203;-74
2023/05/10 09:18:50;;;;;;;3.58;3.28;;;15.30;99.90;;;;;;5073615;28;20200;-76
2023/05/10 09:21:17;;;;;;;3.40;3.10;;;15.60;99.90;;;;;;5073341;28;20258;-75
2023/05/10 09:23:44;;;;;;;3.20;2.90;;;15.60;99.90;;;;;;5073477;28;20247;-75
2023/05/10 09:26:11;;;;;;;3.33;3.00;;;15.50;99.90;;;;;;5073213;28;20193;-74
2023/05/10 09:28:53;;;;;;;3.88;2.90;;;15.80;99.90;;;;;;5073153;28;20648;-74
2023/05/10 09:31:21;;;;;;;3.30;3.00;;;15.70;99.90;;;;;;5073398;28;20205;-76
2023/05/10 09:33:48;;;;;;;5.88;3.20;;;15.40;99.90;;;;;;5073109;28;20603;-74
2023/05/10 09:36:15;;;;;;;3.80;3.33;;;15.30;99.90;;;;;;5073089;28;20266;-74
2023/05/10 09:38:52;;;;;;;4.68;3.60;;;15.00;99.90;;;;;;5073048;28;20193;-74
2023/05/10 09:41:20;;;;;;;3.38;2.85;;;14.90;99.90;;;;;;5073134;28;20270;-74
2023/05/10 09:43:47;;;;;;;3.50;3.20;;;14.60;99.90;;;;;;5073104;28;20251;-76
2023/05/10 09:46:14;;;;;;;3.57;2.90;;;14.50;99.90;;;;;;5073147;28;20254;-73
2023/05/10 09:48:46;;;;;;;3.47;2.33;;;14.40;99.90;;;;;;5073020;28;20197;-74
2023/05/10 09:51:20;;;;;;;5.72;2.40;;;14.40;99.90;;;;;;5072577;28;20680;-74
2023/05/10 09:53:46;;;;;;;2.30;2.10;;;14.40;99.90;;;;;;5072709;28;20236;-74
2023/05/10 09:56:14;;;;;;;2.27;2.07;;;14.40;99.90;;;;;;5072924;28;20556;-75
2023/05/10 09:58:40;;;;;;;3.23;1.93;;;14.60;99.90;;;;;;5072967;28;20197;-75
2023/05/10 10:01:12;;;;;;;3.77;2.53;;;14.80;99.90;;;;;;5072826;28;20258;-75
2023/05/10 10:03:43;;;;;;;2.50;2.30;;;15.10;99.90;;;;;;5072717;28;20648;-76
2023/05/10 10:06:11;;;;;;;2.75;2.03;;;15.30;99.90;;;;;;5072933;28;20193;-75
2023/05/10 10:08:38;;;;;;;4.43;2.35;;;15.40;99.90;;;;;;5075834;28;20323;-75
2023/05/10 10:11:04;;;;;;;3.47;2.35;;;15.80;99.90;;;;;;5071204;28;20196;-75
2023/05/10 10:13:31;;;;;;;3.22;2.70;;;16.30;99.90;;;;;;5072349;28;20197;-73
2023/05/10 10:15:58;;;;;;;3.20;2.60;;;16.70;99.90;;;;;;5072357;28;20194;-73
2023/05/10 10:18:26;;;;;;;2.58;2.38;;;16.80;99.90;;;;;;5072177;28;20189;-74
2023/05/10 10:20:54;;;;;;;2.22;2.03;;;17.10;99.90;;;;;;5072422;28;20204;-74
2023/05/10 10:23:23;;;;;;;2.92;2.60;;;17.70;99.90;;;;;;5072674;28;20228;-75
2023/05/10 10:25:51;;;;;;;2.53;2.33;;;17.80;99.90;;;;;;5072639;28;20207;-74
2023/05/10 10:28:27;;;;;;;4.20;2.33;;;18.10;99.90;;;;;;5072198;28;20200;-75
2023/05/10 10:30:56;;;;;;;2.28;2.08;;;18.10;99.90;;;;;;5072392;28;20238;-75
2023/05/10 10:33:41;;;;;;;2.17;2.00;;;16.70;99.90;;;;;;5072523;28;20208;-74
2023/05/10 10:36:08;;;;;;;1.75;1.65;;;15.90;99.90;;;;;;5072534;28;20201;-74
2023/05/10 10:38:59;;;;;;;1.77;1.67;;;15.50;99.90;;;;;;5072148;28;20197;-74
2023/05/10 10:41:31;;;;;;;2.05;1.85;;;15.50;99.90;;;;;;5072073;28;20284;-74
2023/05/10 10:44:26;;;;;;;2.22;1.85;;;15.70;99.90;;;;;;5072184;28;20659;-75
2023/05/10 10:47:05;;;;;;;3.70;2.00;;;16.20;99.90;;;;;;5072401;28;20251;-76
2023/05/10 10:49:33;;;;;;;3.13;2.10;;;16.30;99.90;;;;;;5072160;28;20193;-74
2023/05/10 10:52:16;;;;;;;2.50;2.20;;;16.10;99.90;;;;;;5072078;28;20591;-73
2023/05/10 10:54:50;;;;;;;2.50;2.30;;;15.70;99.90;;;;;;5072097;28;20202;-73
2023/05/10 10:57:20;;;;;;;4.18;3.25;;;15.80;99.90;;;;;;5075355;28;20541;-77
2023/05/10 10:59:47;;;;;;;4.00;3.15;;;15.60;99.90;;;;;;5075295;28;20705;-75
2023/05/10 11:02:34;;;;;;;5.80;4.10;;;15.20;99.90;;;;;;5075641;28;20362;-75
2023/05/10 11:05:00;;;;;;;5.30;4.82;;;14.90;99.90;;;;;;5075905;28;20672;-78
2023/05/10 11:07:27;;;;;;;4.40;4.00;;;14.60;99.90;;;;;;5075975;28;20563;-76
2023/05/10 11:09:55;;;;;;;5.20;4.70;;;13.70;99.90;;;;;;5075582;28;20552;-76
2023/05/10 11:12:23;;;;;;;4.93;4.30;;;13.50;99.90;;;;;;5075906;28;20208;-77
2023/05/10 11:14:51;;;;;;;5.10;4.47;;;13.40;99.90;;;;;;5076077;28;20212;-77
2023/05/10 11:17:24;;;;;;;6.07;4.47;;;13.50;99.90;;;;;;5075909;28;20197;-77
2023/05/10 11:20:08;;;;;;;5.13;4.63;;;13.70;99.90;;;;;;5075560;28;20561;-76
2023/05/10 11:22:50;;;;;;;5.30;4.80;;;13.80;99.90;;;;;;5075521;28;20216;-76
2023/05/10 11:25:18;;;;;;;6.27;5.17;;;14.10;99.90;;;;;;5075676;28;20185;-76
2023/05/10 11:27:45;;;;;;;4.83;4.43;;;14.40;99.90;;;;;;5075802;28;20197;-76
2023/05/10 11:30:13;;;;;;;6.13;4.50;;;14.80;99.90;;;;;;5075749;28;20533;-76
2023/05/10 11:32:40;;;;;;;4.53;4.10;;;15.00;99.90;;;;;;5075544;28;20391;-77
2023/05/10 11:35:08;;;;;;;5.30;4.40;;;15.40;99.90;;;;;;5075629;28;20239;-77
2023/05/10 11:37:35;;;;;;;4.30;3.90;;;15.50;99.90;;;;;;5075353;28;20197;-76
2023/05/10 11:40:03;;;;;;;3.90;3.22;;;16.10;99.90;;;;;;5075552;28;20227;-77
2023/05/10 11:42:31;;;;;;;3.33;3.00;;;16.40;99.90;;;;;;5078511;28;20330;-78
2023/05/10 11:44:57;;;;;;;3.40;3.10;;;16.70;99.90;;;;;;5076262;28;20232;-78
2023/05/10 11:47:24;;;;;;;3.42;2.65;;;16.60;99.90;;;;;;5075800;28;20283;-79
2023/05/10 11:49:52;;;;;;;2.80;2.60;;;16.90;99.90;;;;;;5075584;28;20201;-78
2023/05/10 11:52:19;;;;;;;2.97;2.60;;;17.30;99.90;;;;;;5075019;28;20229;-78
2023/05/10 11:54:51;;;;;;;2.80;2.60;;;17.40;99.90;;;;;;5075545;28;20201;-78
2023/05/10 11:57:19;;;;;;;2.45;2.25;;;17.10;99.90;;;;;;5075322;28;20201;-73
2023/05/10 11:59:48;;;;;;;2.38;2.17;;;16.90;99.90;;;;;;5075072;28;20724;-76
2023/05/10 12:02:14;;;;;;;2.65;2.42;;;17.40;99.90;;;;;;5074975;28;20221;-80
2023/05/10 12:04:42;;;;;;;3.80;2.72;;;17.40;99.90;;;;;;5075029;28;20725;-78
2023/05/10 12:07:09;;;;;;;3.30;2.55;;;17.50;99.90;;;;;;5074268;28;20201;-77
2023/05/10 12:09:36;;;;;;;4.75;2.72;;;17.50;99.90;;;;;;5074932;28;20201;-78
2023/05/10 12:12:03;;;;;;;2.50;2.30;;;17.60;99.90;;;;;;5075347;28;20303;-78
2023/05/10 12:14:33;;;;;;;3.40;2.42;;;17.70;99.90;;;;;;5073910;28;20201;-78
2023/05/10 12:17:01;;;;;;;2.65;2.15;;;17.30;99.90;;;;;;5074794;28;20197;-76
2023/05/10 12:19:27;;;;;;;4.15;2.53;;;16.80;99.90;;;;;;5074870;28;20546;-75
2023/05/10 12:21:54;;;;;;;3.50;2.00;;;16.90;99.90;;;;;;5074724;28;20243;-76
2023/05/10 12:24:21;;;;;;;3.50;2.85;;;16.50;99.90;;;;;;5074804;28;20258;-77
2023/05/10 12:26:48;;;;;;;4.53;2.53;;;16.10;99.90;;;;;;5074682;28;20255;-77
2023/05/10 12:29:16;;;;;;;4.72;2.83;;;15.90;99.90;;;;;;5074537;28;20197;-79
2023/05/10 12:31:54;;;;;;;3.03;2.78;;;15.80;99.90;;;;;;5074336;28;20673;-79
2023/05/10 12:34:26;;;;;;;3.85;2.22;;;15.50;99.90;;;;;;5074669;28;20607;-78
2023/05/10 12:36:53;;;;;;;2.33;2.13;;;15.30;99.90;;;;;;5075137;28;20197;-78
2023/05/10 12:39:19;;;;;;;3.63;2.78;;;15.20;99.90;;;;;;5074652;28;20197;-73
2023/05/10 12:41:46;;;;;;;3.38;2.30;;;15.20;99.90;;;;;;5074147;28;20205;-74
2023/05/10 12:44:13;;;;;;;3.93;2.50;;;15.20;99.90;;;;;;5073613;28;20221;-76
2023/05/10 12:46:39;;;;;;;4.13;2.70;;;15.40;99.90;;;;;;5073697;28;20992;-75
2023/05/10 12:49:06;;;;;;;2.78;2.42;;;15.70;99.90;;;;;;5074163;28;20201;-76
2023/05/10 12:51:34;;;;;;;3.20;2.30;;;16.10;99.90;;;;;;5073966;28;20235;-76
2023/05/10 12:54:00;;;;;;;3.95;2.30;;;16.20;99.90;;;;;;5073744;28;20696;-76